SBBI

Details ICAO SBBI (BFH)
Name Curitiba Bacacheri
Region Brazil
Timezone America/Sao_Paulo (UTC-2.0)
Plans Departing 52
Arriving 16
Stats Elevation 3,057 ft / 932 m (AMSL)
Location -25.405079° -49.232036°
Runways 1
Magnetic Variation 19.615° W
Sunrise 2017-12-15 08:22:16 UTC / 2017-12-15 06:22:16 Local
Sunset 2017-12-15 22:04:49 UTC / 2017-12-15 20:04:49 Local
Advertisement - Login to hide

Runways

ID Width Length Bearing (true) Bearing (mag) Surface Threshold Offset Overrun Length
18 98 ft / 30 m 4,591 ft / 1,399 m 157.57° 177.18° Asphalt 527 ft / 161 m 0 ft / 0 m
36 98 ft / 30 m 4,591 ft / 1,399 m 337.56° 357.17° Asphalt 350 ft / 107 m 0 ft / 0 m

Map

Weather


0- 5 10 15 20 25 30 35+ Temperature / ° C

Clouds and Precipitation
Forecast for 2017-12-15 18:00 UTC. Updated an hour ago

Ground ~20,000 ft ~40,000 ft Winds

METAR

SBBI 151800Z 32004KT 9999 FEW040 BKN100 24/18 Q1016

TAF

TAF SBBI 151500Z 1518/1606 07005KT 7000 SHRA SCT020 FEW030TCU TX25/1518Z TN19/1606Z PROB30 1518/1521 27004KT 4000 TSRA FEW030CB BECMG 1603/1606 4000 BR SCT010 RMK PDN

Frequencies

Ground 121.80 MHz GND
Approach 129.55 MHz CURITIBA APP
Tower 118.90 MHz TWR
Warning: Do not use this data for real-world aviation or navigation. No guarantee of current accuracy is given.